Time;durP1;ratioP1;P1;durP2;ratioP2;P2;SDS_P1;SDS_P2;PMS_P1;PMS_P2;Temp;Humidity;BMP_temperature;BMP_pressure;BME280_temperature;BME280_humidity;BME280_pressure;Samples;Min_cycle;Max_cycle;Signal;HPM_P1;HPM_P2
2024/01/14 00:01:48;;;;;;;54.33;24.92;;;;;;;;;;5054557;28;20457;-81
2024/01/14 00:04:14;;;;;;;56.63;25.55;;;;;;;;;;5051298;28;20419;-81
2024/01/14 00:06:40;;;;;;;54.92;24.75;;;;;;;;;;5034072;28;20397;-81
2024/01/14 00:09:06;;;;;;;52.40;25.30;;;;;;;;;;5034253;28;20379;-81
2024/01/14 00:11:32;;;;;;;49.25;24.80;;;;;;;;;;5035179;28;20888;-81
2024/01/14 00:13:58;;;;;;;54.30;26.20;;;;;;;;;;5035286;28;20382;-81
2024/01/14 00:16:24;;;;;;;56.60;26.25;;;;;;;;;;5034553;28;20465;-81
2024/01/14 00:18:50;;;;;;;50.30;25.15;;;;;;;;;;5034996;28;20371;-81
2024/01/14 00:21:16;;;;;;;46.47;23.27;;;;;;;;;;5034869;28;20741;-81
2024/01/14 00:23:42;;;;;;;52.05;25.02;;;;;;;;;;5034480;28;20438;-81
2024/01/14 00:26:08;;;;;;;48.38;24.02;;;;;;;;;;5033948;28;20379;-81
2024/01/14 00:28:34;;;;;;;50.85;24.48;;;;;;;;;;5034377;28;20383;-81
2024/01/14 00:31:00;;;;;;;50.30;24.77;;;;;;;;;;5034704;28;20387;-81
2024/01/14 00:33:26;;;;;;;51.40;24.13;;;;;;;;;;5035114;28;20395;-81
2024/01/14 00:35:52;;;;;;;48.43;24.03;;;;;;;;;;5033854;28;20407;-81
2024/01/14 00:38:18;;;;;;;48.33;24.15;;;;;;;;;;5033934;28;20919;-81
2024/01/14 00:40:44;;;;;;;49.83;24.80;;;;;;;;;;5031984;28;20403;-81
2024/01/14 00:43:10;;;;;;;44.92;23.38;;;;;;;;;;5032107;28;20517;-81
2024/01/14 00:45:36;;;;;;;46.27;23.67;;;;;;;;;;5034492;28;20477;-81
2024/01/14 00:48:02;;;;;;;42.17;22.38;;;;;;;;;;5034345;28;20410;-81
2024/01/14 00:50:29;;;;;;;42.57;22.47;;;;;;;;;;5034656;28;20375;-81
2024/01/14 00:52:56;;;;;;;41.10;21.67;;;;;;;;;;5034874;28;20467;-81
2024/01/14 00:55:22;;;;;;;42.42;21.88;;;;;;;;;;5034584;28;20896;-81
2024/01/14 00:57:48;;;;;;;41.33;21.95;;;;;;;;;;5034564;28;20410;-81
2024/01/14 01:00:14;;;;;;;43.17;22.98;;;;;;;;;;5034027;28;20417;-81
2024/01/14 01:02:40;;;;;;;40.92;22.23;;;;;;;;;;5034696;28;20717;-81
2024/01/14 01:05:06;;;;;;;42.22;22.98;;;;;;;;;;5034260;28;20383;-81
2024/01/14 01:07:32;;;;;;;39.97;22.10;;;;;;;;;;5033964;28;20383;-81
2024/01/14 01:09:58;;;;;;;43.38;22.42;;;;;;;;;;5034115;28;20406;-81
2024/01/14 01:12:24;;;;;;;39.75;21.98;;;;;;;;;;5034399;28;20470;-81
2024/01/14 01:14:50;;;;;;;38.63;21.25;;;;;;;;;;5035813;28;20740;-81
2024/01/14 01:17:16;;;;;;;42.58;22.60;;;;;;;;;;5034086;28;20773;-81
2024/01/14 01:19:42;;;;;;;41.33;22.67;;;;;;;;;;5033804;28;20441;-81
2024/01/14 01:22:08;;;;;;;37.63;21.08;;;;;;;;;;5034014;28;20478;-81
2024/01/14 01:24:37;;;;;;;37.42;20.55;;;;;;;;;;5034412;28;20383;-81
2024/01/14 01:27:03;;;;;;;35.00;20.63;;;;;;;;;;5033991;28;20923;-81
2024/01/14 01:29:30;;;;;;;32.92;20.13;;;;;;;;;;5034472;28;20422;-81
2024/01/14 01:31:56;;;;;;;35.70;20.23;;;;;;;;;;5034405;28;20459;-81
2024/01/14 01:34:22;;;;;;;34.15;20.02;;;;;;;;;;5034148;28;20426;-81
2024/01/14 01:36:48;;;;;;;32.05;18.60;;;;;;;;;;5034318;28;20470;-81
2024/01/14 01:39:14;;;;;;;33.63;19.35;;;;;;;;;;5034229;28;20411;-81
2024/01/14 01:41:40;;;;;;;33.08;19.17;;;;;;;;;;5032857;28;20391;-81
2024/01/14 01:44:06;;;;;;;30.98;18.50;;;;;;;;;;5033640;28;20387;-81
2024/01/14 01:46:32;;;;;;;33.15;19.45;;;;;;;;;;5033692;28;20383;-81
2024/01/14 01:48:59;;;;;;;30.77;18.23;;;;;;;;;;5033416;28;20422;-81
2024/01/14 01:51:26;;;;;;;31.13;18.13;;;;;;;;;;5033710;28;20464;-81
2024/01/14 01:53:52;;;;;;;32.60;18.80;;;;;;;;;;5034751;28;20406;-81
2024/01/14 01:56:18;;;;;;;33.30;19.17;;;;;;;;;;5037330;28;20402;-81
2024/01/14 01:58:44;;;;;;;32.95;19.92;;;;;;;;;;5036839;28;20452;-81
2024/01/14 02:01:10;;;;;;;39.65;21.60;;;;;;;;;;5036956;28;20429;-81
2024/01/14 02:03:36;;;;;;;36.30;20.42;;;;;;;;;;5037568;28;20429;-81
2024/01/14 02:06:03;;;;;;;36.33;20.27;;;;;;;;;;5037626;28;20387;-81
2024/01/14 02:08:29;;;;;;;39.40;21.27;;;;;;;;;;5037463;28;20383;-81
2024/01/14 02:10:55;;;;;;;37.72;20.58;;;;;;;;;;5037772;28;20429;-81
2024/01/14 02:13:21;;;;;;;37.78;21.17;;;;;;;;;;5037732;28;20858;-81
2024/01/14 02:15:47;;;;;;;38.47;20.92;;;;;;;;;;5037297;28;20452;-81
2024/01/14 02:18:13;;;;;;;39.95;20.55;;;;;;;;;;5037125;28;20389;-81
2024/01/14 02:20:39;;;;;;;38.88;21.20;;;;;;;;;;5036541;28;20383;-81
2024/01/14 02:23:07;;;;;;;40.95;21.70;;;;;;;;;;5036987;28;20375;-81
2024/01/14 02:25:32;;;;;;;42.35;22.45;;;;;;;;;;5036319;28;20392;-81
2024/01/14 02:27:58;;;;;;;41.00;21.90;;;;;;;;;;5035505;28;20904;-81
2024/01/14 02:30:25;;;;;;;36.97;21.15;;;;;;;;;;5036079;28;20390;-81
2024/01/14 02:32:52;;;;;;;38.97;20.75;;;;;;;;;;5034842;28;20449;-81
2024/01/14 02:35:18;;;;;;;37.67;20.25;;;;;;;;;;5036381;28;20405;-81
2024/01/14 02:37:44;;;;;;;35.42;20.27;;;;;;;;;;5036089;28;20788;-81
2024/01/14 02:40:13;;;;;;;37.47;20.90;;;;;;;;;;5032920;28;20376;-81
2024/01/14 02:42:40;;;;;;;40.58;21.30;;;;;;;;;;5036570;28;20471;-81
2024/01/14 02:45:07;;;;;;;40.92;21.42;;;;;;;;;;5036763;28;20453;-80
2024/01/14 02:47:33;;;;;;;39.75;20.88;;;;;;;;;;5036173;28;20411;-80
2024/01/14 02:49:59;;;;;;;39.10;21.52;;;;;;;;;;5036250;28;20790;-81
2024/01/14 02:52:25;;;;;;;42.35;22.23;;;;;;;;;;5035923;28;20394;-81
2024/01/14 02:54:51;;;;;;;41.60;22.30;;;;;;;;;;5034659;28;20542;-81
2024/01/14 02:57:17;;;;;;;36.50;20.47;;;;;;;;;;5035944;28;20410;-81
2024/01/14 02:59:43;;;;;;;40.20;20.23;;;;;;;;;;5036648;28;20386;-81
2024/01/14 03:02:09;;;;;;;37.40;20.57;;;;;;;;;;5034836;28;20379;-81
2024/01/14 03:04:35;;;;;;;36.88;20.67;;;;;;;;;;5035269;28;20375;-81
2024/01/14 03:07:01;;;;;;;38.20;21.05;;;;;;;;;;5035179;28;20387;-81
2024/01/14 03:09:27;;;;;;;35.47;20.33;;;;;;;;;;5036176;28;20379;-81
2024/01/14 03:11:53;;;;;;;37.70;21.02;;;;;;;;;;5036078;28;20383;-80
2024/01/14 03:14:19;;;;;;;38.50;20.50;;;;;;;;;;5036134;28;20474;-81
2024/01/14 03:16:45;;;;;;;36.50;20.55;;;;;;;;;;5035465;28;20414;-81
2024/01/14 03:19:11;;;;;;;38.15;20.73;;;;;;;;;;5034903;28;20379;-81
2024/01/14 03:21:37;;;;;;;34.20;19.92;;;;;;;;;;5035892;28;20383;-81
2024/01/14 03:24:03;;;;;;;40.45;20.83;;;;;;;;;;5036399;28;20466;-81
2024/01/14 03:26:30;;;;;;;40.17;21.95;;;;;;;;;;5035850;28;20379;-81
2024/01/14 03:28:56;;;;;;;42.88;22.02;;;;;;;;;;5035777;28;20402;-81
2024/01/14 03:31:22;;;;;;;40.13;21.23;;;;;;;;;;5035801;28;20387;-81
2024/01/14 03:33:48;;;;;;;36.90;21.35;;;;;;;;;;5035273;28;20390;-81
2024/01/14 03:36:14;;;;;;;36.58;21.05;;;;;;;;;;5035370;28;20900;-80
2024/01/14 03:38:41;;;;;;;32.67;19.02;;;;;;;;;;5035910;28;21095;-80
2024/01/14 03:41:07;;;;;;;34.90;20.90;;;;;;;;;;5035561;28;20379;-81
2024/01/14 03:43:32;;;;;;;39.20;21.38;;;;;;;;;;5035553;28;20398;-80
2024/01/14 03:45:58;;;;;;;39.00;22.15;;;;;;;;;;5035360;28;20414;-80
2024/01/14 03:48:24;;;;;;;37.92;20.75;;;;;;;;;;5035007;28;20519;-80
2024/01/14 03:50:50;;;;;;;39.47;20.80;;;;;;;;;;5035401;28;20410;-80
2024/01/14 03:53:16;;;;;;;40.08;21.75;;;;;;;;;;5035501;28;20422;-80
2024/01/14 03:55:42;;;;;;;38.17;21.03;;;;;;;;;;5034839;28;20787;-80
2024/01/14 03:58:09;;;;;;;37.92;20.63;;;;;;;;;;5035008;28;20403;-80
2024/01/14 04:00:34;;;;;;;42.67;21.15;;;;;;;;;;5035286;28;20761;-80
2024/01/14 04:03:00;;;;;;;45.05;22.98;;;;;;;;;;5033449;28;20437;-80
2024/01/14 04:05:26;;;;;;;42.35;22.10;;;;;;;;;;5035561;28;20430;-80
2024/01/14 04:07:52;;;;;;;46.20;22.27;;;;;;;;;;5035003;28;20388;-80
2024/01/14 04:10:18;;;;;;;45.90;23.27;;;;;;;;;;5035015;28;20387;-80
2024/01/14 04:12:44;;;;;;;41.30;22.10;;;;;;;;;;5034868;28;20411;-80
2024/01/14 04:15:11;;;;;;;43.67;22.47;;;;;;;;;;5034840;28;21114;-80
2024/01/14 04:17:37;;;;;;;40.67;22.08;;;;;;;;;;5034237;28;20467;-80
2024/01/14 04:20:03;;;;;;;40.63;22.08;;;;;;;;;;5035159;28;20407;-80
2024/01/14 04:22:29;;;;;;;44.42;22.25;;;;;;;;;;5034412;28;20733;-81
2024/01/14 04:24:55;;;;;;;43.37;22.93;;;;;;;;;;5034775;28;20710;-80
2024/01/14 04:27:21;;;;;;;45.85;23.40;;;;;;;;;;5034639;28;20391;-80
2024/01/14 04:29:47;;;;;;;44.23;22.80;;;;;;;;;;5034734;28;20391;-80
2024/01/14 04:32:13;;;;;;;44.10;22.45;;;;;;;;;;5034402;28;20441;-80
2024/01/14 04:34:39;;;;;;;45.78;23.05;;;;;;;;;;5034488;28;20740;-81
2024/01/14 04:37:05;;;;;;;45.00;22.67;;;;;;;;;;5035007;28;20441;-80
2024/01/14 04:39:31;;;;;;;45.70;22.17;;;;;;;;;;5035057;28;20467;-80
2024/01/14 04:41:58;;;;;;;46.78;23.35;;;;;;;;;;5034470;28;20394;-80
2024/01/14 04:44:24;;;;;;;44.28;23.55;;;;;;;;;;5034865;28;20410;-80
2024/01/14 04:46:50;;;;;;;50.38;24.25;;;;;;;;;;5034790;28;20458;-80
2024/01/14 04:49:16;;;;;;;49.85;23.95;;;;;;;;;;5023358;28;20933;-80
2024/01/14 04:51:42;;;;;;;43.50;22.08;;;;;;;;;;5014769;28;20431;-80
2024/01/14 04:54:08;;;;;;;46.13;22.45;;;;;;;;;;5015646;28;20384;-80
2024/01/14 04:56:34;;;;;;;42.50;22.13;;;;;;;;;;5033925;28;20441;-80
2024/01/14 04:59:00;;;;;;;40.22;21.33;;;;;;;;;;5034005;28;20875;-80
2024/01/14 05:01:26;;;;;;;38.72;20.95;;;;;;;;;;5033528;28;20379;-80
2024/01/14 05:03:52;;;;;;;39.92;22.05;;;;;;;;;;5033828;28;20761;-80
2024/01/14 05:06:18;;;;;;;41.10;21.20;;;;;;;;;;5033641;28;20422;-80
2024/01/14 05:08:44;;;;;;;36.87;20.83;;;;;;;;;;5033849;28;20386;-80
2024/01/14 05:11:10;;;;;;;39.17;20.63;;;;;;;;;;5033600;28;20448;-80
2024/01/14 05:13:36;;;;;;;39.83;20.92;;;;;;;;;;5033856;28;20386;-80
2024/01/14 05:16:02;;;;;;;41.55;21.50;;;;;;;;;;5034121;28;20887;-80
2024/01/14 05:18:28;;;;;;;42.10;21.92;;;;;;;;;;5034799;28;20425;-80
2024/01/14 05:20:54;;;;;;;43.40;21.73;;;;;;;;;;5034247;28;20403;-80
2024/01/14 05:23:21;;;;;;;40.63;21.17;;;;;;;;;;5034284;28;20375;-80
2024/01/14 05:25:47;;;;;;;41.97;21.35;;;;;;;;;;5034188;28;20430;-80
2024/01/14 05:28:13;;;;;;;47.10;22.88;;;;;;;;;;5034166;28;20390;-80
2024/01/14 05:30:39;;;;;;;45.55;22.58;;;;;;;;;;5037804;28;20380;-80
2024/01/14 05:33:05;;;;;;;48.38;23.33;;;;;;;;;;5037620;28;20386;-81
2024/01/14 05:35:31;;;;;;;47.15;22.83;;;;;;;;;;5037594;28;20762;-80
2024/01/14 05:37:57;;;;;;;42.42;21.80;;;;;;;;;;5037534;28;20387;-80
2024/01/14 05:40:23;;;;;;;44.45;21.98;;;;;;;;;;5037731;28;20371;-80
2024/01/14 05:42:49;;;;;;;46.30;22.55;;;;;;;;;;5038159;28;20399;-80
2024/01/14 05:45:15;;;;;;;46.13;24.30;;;;;;;;;;5037561;28;20402;-80
2024/01/14 05:47:41;;;;;;;48.15;23.60;;;;;;;;;;5037226;28;20458;-81
2024/01/14 05:50:08;;;;;;;47.10;23.25;;;;;;;;;;5037253;28;20883;-80
2024/01/14 05:52:34;;;;;;;48.80;23.27;;;;;;;;;;5037360;28;20379;-80
2024/01/14 05:55:00;;;;;;;49.13;23.40;;;;;;;;;;5037107;28;20970;-80
2024/01/14 05:57:26;;;;;;;49.80;23.63;;;;;;;;;;5037279;28;20390;-80
2024/01/14 05:59:52;;;;;;;50.15;23.88;;;;;;;;;;5037614;28;20375;-80
2024/01/14 06:02:18;;;;;;;45.38;23.25;;;;;;;;;;5036286;28;20388;-80
2024/01/14 06:04:44;;;;;;;48.13;22.27;;;;;;;;;;5038008;28;20383;-80
2024/01/14 06:07:10;;;;;;;45.20;22.60;;;;;;;;;;5036732;28;20447;-80
2024/01/14 06:09:36;;;;;;;45.35;23.00;;;;;;;;;;5037044;28;20387;-80
2024/01/14 06:12:02;;;;;;;48.03;23.23;;;;;;;;;;5035821;28;20482;-80
2024/01/14 06:14:28;;;;;;;40.10;21.27;;;;;;;;;;5036470;28;20383;-80
2024/01/14 06:16:54;;;;;;;39.38;20.67;;;;;;;;;;5036819;28;20821;-80
2024/01/14 06:19:20;;;;;;;34.83;19.45;;;;;;;;;;5037136;28;20458;-80
2024/01/14 06:21:46;;;;;;;36.72;19.45;;;;;;;;;;5036491;28;20865;-80
2024/01/14 06:24:15;;;;;;;34.27;19.57;;;;;;;;;;5037243;28;20387;-80
2024/01/14 06:26:41;;;;;;;39.33;21.08;;;;;;;;;;5037889;28;20895;-80
2024/01/14 06:29:07;;;;;;;37.33;20.70;;;;;;;;;;5036435;28;20488;-80
2024/01/14 06:31:33;;;;;;;39.67;21.08;;;;;;;;;;5036137;28;20737;-79
2024/01/14 06:33:59;;;;;;;41.38;21.27;;;;;;;;;;5036981;28;20486;-79
2024/01/14 06:36:25;;;;;;;41.55;20.77;;;;;;;;;;5037092;28;20850;-80
2024/01/14 06:38:51;;;;;;;42.28;21.67;;;;;;;;;;5036623;28;20444;-80
2024/01/14 06:41:23;;;;;;;44.22;21.88;;;;;;;;;;5033767;28;20407;-79
2024/01/14 06:43:49;;;;;;;45.30;21.85;;;;;;;;;;5036859;28;20371;-79
2024/01/14 06:46:16;;;;;;;43.45;21.92;;;;;;;;;;5036117;28;20458;-79
2024/01/14 06:48:42;;;;;;;45.85;22.10;;;;;;;;;;5034749;28;20418;-79
2024/01/14 06:51:08;;;;;;;43.38;21.80;;;;;;;;;;5036080;28;20470;-80
2024/01/14 06:53:34;;;;;;;44.33;21.85;;;;;;;;;;5035049;28;20433;-80
2024/01/14 06:56:03;;;;;;;41.17;20.70;;;;;;;;;;5034497;28;20905;-80
2024/01/14 06:58:30;;;;;;;37.67;20.05;;;;;;;;;;5036589;28;20387;-79
2024/01/14 07:00:56;;;;;;;42.33;20.70;;;;;;;;;;5036343;28;20379;-80
2024/01/14 07:03:22;;;;;;;38.47;20.83;;;;;;;;;;5036980;28;20923;-80
2024/01/14 07:05:48;;;;;;;44.03;21.38;;;;;;;;;;5036208;28;20394;-79
2024/01/14 07:08:13;;;;;;;41.63;21.33;;;;;;;;;;5035440;28;20396;-80
2024/01/14 07:10:39;;;;;;;41.20;20.70;;;;;;;;;;5036188;28;20384;-80
2024/01/14 07:13:05;;;;;;;44.00;21.77;;;;;;;;;;5036411;28;20395;-80
2024/01/14 07:15:31;;;;;;;44.20;21.92;;;;;;;;;;5035918;28;20491;-79
2024/01/14 07:17:57;;;;;;;46.47;22.58;;;;;;;;;;5035687;28;20865;-79
2024/01/14 07:20:23;;;;;;;46.05;22.65;;;;;;;;;;5036154;28;20806;-79
2024/01/14 07:22:49;;;;;;;43.92;22.50;;;;;;;;;;5035941;28;20379;-79
2024/01/14 07:25:15;;;;;;;44.03;22.02;;;;;;;;;;5035755;28;20512;-79
2024/01/14 07:27:41;;;;;;;46.47;22.60;;;;;;;;;;5035805;28;20714;-79
2024/01/14 07:30:08;;;;;;;46.42;22.73;;;;;;;;;;5035815;28;20509;-79
2024/01/14 07:32:33;;;;;;;41.28;21.00;;;;;;;;;;5035940;28;21127;-79
2024/01/14 07:34:59;;;;;;;43.35;21.60;;;;;;;;;;5035324;28;20411;-79
2024/01/14 07:37:25;;;;;;;41.97;20.75;;;;;;;;;;5035542;28;20785;-79
2024/01/14 07:39:51;;;;;;;39.92;21.50;;;;;;;;;;5035721;28;20383;-79
2024/01/14 07:42:17;;;;;;;38.80;21.02;;;;;;;;;;5035636;28;20481;-79
2024/01/14 07:44:44;;;;;;;37.80;20.85;;;;;;;;;;5035066;28;20387;-79
2024/01/14 07:47:10;;;;;;;36.90;20.30;;;;;;;;;;5035326;28;20371;-79
2024/01/14 07:49:36;;;;;;;37.25;20.15;;;;;;;;;;5035507;28;20391;-79
2024/01/14 07:52:02;;;;;;;32.80;18.45;;;;;;;;;;5034979;28;20433;-79
2024/01/14 07:54:28;;;;;;;34.45;19.77;;;;;;;;;;5035057;28;20379;-80
2024/01/14 07:56:54;;;;;;;35.30;18.90;;;;;;;;;;5035672;28;20454;-81
2024/01/14 07:59:23;;;;;;;36.00;19.67;;;;;;;;;;5035454;28;20899;-80
2024/01/14 08:01:49;;;;;;;35.87;19.50;;;;;;;;;;5035820;28;20381;-80
2024/01/14 08:04:15;;;;;;;32.08;18.55;;;;;;;;;;5035678;28;20371;-80
2024/01/14 08:06:41;;;;;;;36.17;20.00;;;;;;;;;;5035767;28;20397;-79
2024/01/14 08:09:09;;;;;;;33.40;18.95;;;;;;;;;;5035528;28;20391;-79
2024/01/14 08:11:35;;;;;;;35.40;18.98;;;;;;;;;;5035219;28;20445;-80
2024/01/14 08:14:01;;;;;;;34.10;19.27;;;;;;;;;;5035315;28;20399;-80
2024/01/14 08:16:27;;;;;;;32.17;19.08;;;;;;;;;;5035536;28;20433;-80
2024/01/14 08:18:53;;;;;;;34.30;18.98;;;;;;;;;;5035981;28;20383;-80
2024/01/14 08:21:20;;;;;;;33.42;18.77;;;;;;;;;;5035698;28;20425;-80
2024/01/14 08:23:46;;;;;;;32.95;18.55;;;;;;;;;;5035156;28;20372;-79
2024/01/14 08:26:13;;;;;;;35.65;20.17;;;;;;;;;;5035280;28;20394;-79
2024/01/14 08:28:39;;;;;;;36.93;19.73;;;;;;;;;;5034924;28;20375;-80
2024/01/14 08:31:05;;;;;;;37.90;20.52;;;;;;;;;;5034901;28;20796;-79
2024/01/14 08:33:31;;;;;;;34.75;19.33;;;;;;;;;;5034216;28;20386;-79
2024/01/14 08:35:57;;;;;;;36.08;20.30;;;;;;;;;;5034543;28;20407;-80
2024/01/14 08:38:24;;;;;;;36.90;20.17;;;;;;;;;;5034569;28;20382;-79
2024/01/14 08:40:50;;;;;;;35.92;19.83;;;;;;;;;;5034946;28;20566;-79
2024/01/14 08:43:16;;;;;;;35.88;19.50;;;;;;;;;;5034470;28;20383;-80
2024/01/14 08:45:42;;;;;;;35.53;20.15;;;;;;;;;;5034786;28;20383;-80
2024/01/14 08:48:10;;;;;;;34.92;19.92;;;;;;;;;;5034864;28;20450;-80
2024/01/14 08:50:36;;;;;;;36.92;20.10;;;;;;;;;;5030937;28;20397;-80
2024/01/14 08:53:02;;;;;;;37.53;20.98;;;;;;;;;;5034153;28;20383;-80
2024/01/14 08:55:28;;;;;;;38.28;20.48;;;;;;;;;;5034046;28;20419;-80
2024/01/14 08:57:54;;;;;;;38.42;20.23;;;;;;;;;;5034501;28;20454;-80
2024/01/14 09:00:21;;;;;;;40.17;20.83;;;;;;;;;;5034955;28;20403;-80
2024/01/14 09:02:47;;;;;;;37.28;19.52;;;;;;;;;;5033787;28;20375;-80
2024/01/14 09:05:13;;;;;;;37.53;20.55;;;;;;;;;;5033643;28;20379;-80
2024/01/14 09:07:39;;;;;;;39.70;20.40;;;;;;;;;;5034277;28;20386;-81
2024/01/14 09:10:05;;;;;;;38.35;20.50;;;;;;;;;;5033475;28;20531;-81
2024/01/14 09:12:31;;;;;;;37.15;19.92;;;;;;;;;;5033460;28;20426;-81
2024/01/14 09:14:57;;;;;;;34.25;20.25;;;;;;;;;;5033451;28;20513;-80
2024/01/14 09:17:23;;;;;;;37.58;20.33;;;;;;;;;;5033095;28;20470;-80
2024/01/14 09:19:49;;;;;;;37.03;20.02;;;;;;;;;;5033387;28;20390;-81
2024/01/14 09:22:15;;;;;;;33.95;18.80;;;;;;;;;;5033492;28;20375;-81
2024/01/14 09:24:45;;;;;;;34.63;18.73;;;;;;;;;;5033251;28;20379;-81
2024/01/14 09:27:11;;;;;;;31.40;18.23;;;;;;;;;;5032853;28;21093;-80
2024/01/14 09:29:37;;;;;;;39.05;20.63;;;;;;;;;;5033475;28;20383;-80
2024/01/14 09:32:03;;;;;;;34.92;19.40;;;;;;;;;;5033634;28;20382;-80
2024/01/14 09:34:29;;;;;;;33.00;19.38;;;;;;;;;;5033669;28;20387;-81
2024/01/14 09:36:55;;;;;;;31.58;18.40;;;;;;;;;;5032299;28;20463;-81
2024/01/14 09:39:21;;;;;;;31.23;18.33;;;;;;;;;;5033442;28;20880;-81
2024/01/14 09:41:50;;;;;;;36.67;20.07;;;;;;;;;;5031689;28;20398;-80
2024/01/14 09:44:16;;;;;;;37.60;21.13;;;;;;;;;;5032944;28;20912;-81
2024/01/14 09:46:42;;;;;;;39.00;20.52;;;;;;;;;;5033028;28;20433;-81
2024/01/14 09:49:10;;;;;;;38.25;20.38;;;;;;;;;;5032840;28;20802;-81
2024/01/14 09:51:37;;;;;;;38.55;20.88;;;;;;;;;;5032774;28;20792;-81
2024/01/14 09:54:03;;;;;;;41.90;20.98;;;;;;;;;;5033059;28;20389;-81
2024/01/14 09:56:33;;;;;;;45.23;22.40;;;;;;;;;;5032225;28;20479;-81
2024/01/14 09:59:02;;;;;;;41.95;21.98;;;;;;;;;;5032215;28;20403;-81
2024/01/14 10:01:33;;;;;;;38.17;21.38;;;;;;;;;;5032361;28;20405;-81
2024/01/14 10:04:02;;;;;;;41.30;20.77;;;;;;;;;;5032992;28;20462;-81
2024/01/14 10:06:29;;;;;;;41.97;20.67;;;;;;;;;;5032607;28;20759;-81
2024/01/14 10:08:55;;;;;;;40.85;21.35;;;;;;;;;;5032657;28;20393;-82
2024/01/14 10:11:21;;;;;;;37.22;20.63;;;;;;;;;;5033166;28;20477;-81
2024/01/14 10:13:49;;;;;;;38.25;19.20;;;;;;;;;;5032657;28;20481;-81
2024/01/14 10:16:15;;;;;;;34.08;19.27;;;;;;;;;;5035901;28;20745;-81
2024/01/14 10:18:41;;;;;;;32.63;18.67;;;;;;;;;;5036267;28;20395;-81
2024/01/14 10:21:07;;;;;;;33.60;18.85;;;;;;;;;;5036618;28;20388;-81
2024/01/14 10:23:33;;;;;;;32.58;18.63;;;;;;;;;;5035950;28;20371;-81
2024/01/14 10:26:03;;;;;;;37.17;19.95;;;;;;;;;;5035603;28;20383;-81
2024/01/14 10:28:32;;;;;;;35.80;19.83;;;;;;;;;;5035949;28;20410;-81
2024/01/14 10:31:00;;;;;;;33.33;18.80;;;;;;;;;;5035909;28;20390;-82
2024/01/14 10:33:26;;;;;;;34.20;18.98;;;;;;;;;;5034801;28;20391;-81
2024/01/14 10:35:52;;;;;;;34.78;18.83;;;;;;;;;;5036127;28;20792;-81
2024/01/14 10:38:22;;;;;;;35.13;19.17;;;;;;;;;;5035741;28;20379;-81
2024/01/14 10:40:48;;;;;;;32.50;18.63;;;;;;;;;;5036170;28;20707;-81
2024/01/14 10:43:14;;;;;;;29.45;17.42;;;;;;;;;;5036428;28;20792;-82
2024/01/14 10:45:40;;;;;;;31.77;18.20;;;;;;;;;;5034549;28;20418;-81
2024/01/14 10:48:10;;;;;;;30.33;17.83;;;;;;;;;;5034173;28;20418;-81
2024/01/14 10:50:37;;;;;;;30.35;18.48;;;;;;;;;;5036044;28;20494;-81
2024/01/14 10:53:04;;;;;;;35.15;17.67;;;;;;;;;;5035578;28;20395;-81
2024/01/14 10:55:46;;;;;;;30.98;19.10;;;;;;;;;;5035530;28;20418;-81
2024/01/14 10:58:28;;;;;;;34.63;19.67;;;;;;;;;;5035795;28;20445;-81
2024/01/14 11:00:58;;;;;;;35.50;19.30;;;;;;;;;;5027936;28;20451;-81
2024/01/14 11:03:25;;;;;;;38.25;19.92;;;;;;;;;;5015490;28;20411;-81
2024/01/14 11:05:52;;;;;;;34.10;19.60;;;;;;;;;;5015257;28;20392;-81
2024/01/14 11:08:19;;;;;;;36.23;20.67;;;;;;;;;;5013774;28;20535;-82
2024/01/14 11:10:45;;;;;;;32.65;18.55;;;;;;;;;;5015543;28;20380;-81
2024/01/14 11:13:11;;;;;;;35.45;19.33;;;;;;;;;;5015435;28;20421;-81
2024/01/14 11:16:10;;;;;;;34.00;18.50;;;;;;;;;;5014546;28;20888;-81
2024/01/14 11:18:39;;;;;;;31.45;19.08;;;;;;;;;;5003286;28;20428;-81
2024/01/14 11:21:24;;;;;;;33.78;18.55;;;;;;;;;;5014887;28;20393;-81
2024/01/14 11:23:50;;;;;;;34.97;19.17;;;;;;;;;;5015329;28;20381;-81
2024/01/14 11:26:16;;;;;;;35.50;18.90;;;;;;;;;;5014862;28;20404;-81
2024/01/14 11:28:46;;;;;;;32.08;18.23;;;;;;;;;;5015006;28;20392;-82
2024/01/14 11:31:12;;;;;;;31.83;18.33;;;;;;;;;;5015323;28;20846;-81
2024/01/14 11:33:42;;;;;;;34.85;20.10;;;;;;;;;;5014976;28;20455;-82
2024/01/14 11:36:09;;;;;;;33.65;18.13;;;;;;;;;;5014682;28;20419;-82
2024/01/14 11:38:37;;;;;;;28.52;17.30;;;;;;;;;;5014756;28;20827;-82
2024/01/14 11:41:21;;;;;;;31.92;17.15;;;;;;;;;;5015087;28;20392;-82
2024/01/14 11:43:47;;;;;;;34.10;18.67;;;;;;;;;;5013474;28;20397;-81
2024/01/14 11:46:52;;;;;;;32.17;18.73;;;;;;;;;;5014824;28;20381;-82
2024/01/14 11:49:19;;;;;;;31.17;18.20;;;;;;;;;;4992823;28;20505;-82
2024/01/14 11:51:58;;;;;;;30.80;17.25;;;;;;;;;;4992898;28;20379;-82
2024/01/14 11:54:24;;;;;;;32.65;18.40;;;;;;;;;;4992843;28;20486;-81
2024/01/14 11:56:51;;;;;;;31.58;17.50;;;;;;;;;;4992976;28;20414;-82
2024/01/14 11:59:17;;;;;;;28.70;17.40;;;;;;;;;;4992843;28;20393;-82
2024/01/14 12:01:43;;;;;;;33.47;18.30;;;;;;;;;;4992615;28;20453;-82
2024/01/14 12:04:10;;;;;;;31.55;18.40;;;;;;;;;;4992999;28;20433;-82
2024/01/14 12:06:43;;;;;;;35.72;19.50;;;;;;;;;;4992426;28;21127;-82
2024/01/14 12:09:09;;;;;;;32.88;18.40;;;;;;;;;;4992149;28;20424;-82
2024/01/14 12:11:36;;;;;;;34.13;19.13;;;;;;;;;;4992190;28;20908;-81
2024/01/14 12:14:02;;;;;;;32.97;18.45;;;;;;;;;;4992210;28;20466;-82
2024/01/14 12:16:29;;;;;;;29.58;16.77;;;;;;;;;;4975764;28;20839;-82
2024/01/14 12:18:55;;;;;;;29.10;16.60;;;;;;;;;;4992838;28;20387;-81
2024/01/14 12:21:21;;;;;;;27.23;16.40;;;;;;;;;;5014083;28;20376;-82
2024/01/14 12:23:47;;;;;;;25.20;16.20;;;;;;;;;;5014323;28;20392;-81
2024/01/14 12:26:13;;;;;;;25.30;15.38;;;;;;;;;;5014598;28;20391;-82
2024/01/14 12:28:39;;;;;;;25.55;15.68;;;;;;;;;;5026851;28;20379;-82
2024/01/14 12:31:06;;;;;;;25.33;15.70;;;;;;;;;;5033829;28;20478;-82
2024/01/14 12:33:33;;;;;;;25.73;16.08;;;;;;;;;;5035247;28;20387;-82
2024/01/14 12:35:59;;;;;;;28.30;16.77;;;;;;;;;;5034059;28;20402;-81
2024/01/14 12:38:25;;;;;;;26.83;16.38;;;;;;;;;;5034054;28;20388;-81
2024/01/14 12:40:51;;;;;;;27.93;16.60;;;;;;;;;;5032183;28;20415;-81
2024/01/14 12:43:17;;;;;;;27.42;16.60;;;;;;;;;;5033730;28;20403;-81
2024/01/14 12:45:47;;;;;;;28.73;17.30;;;;;;;;;;5031880;28;20383;-81
2024/01/14 12:48:13;;;;;;;28.95;18.27;;;;;;;;;;5033304;28;20433;-81
2024/01/14 12:50:39;;;;;;;28.50;16.60;;;;;;;;;;5033504;28;20494;-81
2024/01/14 12:53:07;;;;;;;29.83;16.58;;;;;;;;;;5033943;28;20395;-81
2024/01/14 12:55:34;;;;;;;28.88;16.50;;;;;;;;;;5033933;28;20904;-81
2024/01/14 12:58:00;;;;;;;29.80;16.83;;;;;;;;;;5033701;28;20414;-81
2024/01/14 13:00:27;;;;;;;27.27;15.68;;;;;;;;;;5033832;28;20380;-81
2024/01/14 13:02:53;;;;;;;30.03;17.73;;;;;;;;;;5033913;28;20378;-81
2024/01/14 13:05:20;;;;;;;30.75;17.10;;;;;;;;;;5033814;28;20437;-81
2024/01/14 13:07:46;;;;;;;27.60;16.63;;;;;;;;;;5033448;28;20396;-81
2024/01/14 13:10:12;;;;;;;26.70;16.07;;;;;;;;;;5031746;28;20805;-81
2024/01/14 13:12:38;;;;;;;28.88;17.05;;;;;;;;;;5014644;28;20394;-81
2024/01/14 13:15:04;;;;;;;29.63;17.37;;;;;;;;;;5013857;28;20440;-81
2024/01/14 13:17:30;;;;;;;27.45;16.65;;;;;;;;;;5013794;28;20766;-81
2024/01/14 13:19:56;;;;;;;28.52;16.65;;;;;;;;;;5013483;28;20384;-81
2024/01/14 13:22:22;;;;;;;29.10;16.60;;;;;;;;;;5013585;28;20914;-81
2024/01/14 13:24:48;;;;;;;28.98;17.42;;;;;;;;;;5014051;28;20420;-81
2024/01/14 13:27:14;;;;;;;26.42;16.25;;;;;;;;;;5013309;28;20380;-81
2024/01/14 13:29:40;;;;;;;27.75;16.38;;;;;;;;;;5012227;28;20385;-81
2024/01/14 13:32:07;;;;;;;28.20;17.07;;;;;;;;;;5013173;28;20751;-81
2024/01/14 13:34:33;;;;;;;27.67;17.00;;;;;;;;;;5013241;28;20380;-81
2024/01/14 13:36:58;;;;;;;28.20;16.27;;;;;;;;;;5012706;28;20503;-81
2024/01/14 13:39:25;;;;;;;59.63;25.13;;;;;;;;;;5013138;28;20439;-81
2024/01/14 13:41:51;;;;;;;30.33;17.57;;;;;;;;;;5013790;28;20416;-80
2024/01/14 13:44:17;;;;;;;25.77;16.20;;;;;;;;;;5012863;28;20388;-80
2024/01/14 13:46:44;;;;;;;23.70;15.18;;;;;;;;;;5014835;28;20385;-81
2024/01/14 13:49:10;;;;;;;26.23;16.00;;;;;;;;;;5015060;28;20496;-82
2024/01/14 13:51:36;;;;;;;24.80;16.38;;;;;;;;;;5019365;28;20388;-82
2024/01/14 13:54:02;;;;;;;26.10;16.33;;;;;;;;;;5019120;28;20859;-81
2024/01/14 13:56:28;;;;;;;26.95;16.50;;;;;;;;;;5017859;28;20409;-81
2024/01/14 13:58:54;;;;;;;25.63;15.63;;;;;;;;;;5017770;28;20427;-81
2024/01/14 14:01:20;;;;;;;25.92;15.73;;;;;;;;;;5017591;28;20391;-81
2024/01/14 14:03:46;;;;;;;26.70;16.40;;;;;;;;;;5017944;28;20495;-82
2024/01/14 14:06:12;;;;;;;29.02;17.30;;;;;;;;;;5017682;28;20397;-81
2024/01/14 14:08:38;;;;;;;26.20;16.67;;;;;;;;;;5016912;28;20432;-81
2024/01/14 14:11:04;;;;;;;26.13;16.48;;;;;;;;;;5017853;28;20377;-81
2024/01/14 14:13:30;;;;;;;25.75;16.30;;;;;;;;;;5017973;28;20384;-81